Time;durP1;ratioP1;P1;durP2;ratioP2;P2;SDS_P1;SDS_P2;PMS_P1;PMS_P2;Temp;Humidity;BMP_temperature;BMP_pressure;BME280_temperature;BME280_humidity;BME280_pressure;Samples;Min_cycle;Max_cycle;Signal;HPM_P1;HPM_P2
2021/10/24 00:00:37;;;;;;;15.70;8.30;;;;;;;3.06;66.09;98417.58;116975;1177;58688;-71
2021/10/24 00:03:12;;;;;;;13.70;7.50;;;;;;;2.96;67.45;98418.88;117236;1177;70570;-76
2021/10/24 00:05:41;;;;;;;13.70;7.70;;;;;;;2.82;67.59;98419.44;117168;1177;67551;-69
2021/10/24 00:08:10;;;;;;;14.30;7.10;;;;;;;2.72;68.19;98420.77;117226;1176;69223;-75
2021/10/24 00:10:40;;;;;;;18.70;6.90;;;;;;;2.61;67.81;98420.63;117200;1176;58726;-75
2021/10/24 00:13:10;;;;;;;13.30;7.40;;;;;;;2.53;68.78;98412.92;116984;1177;58751;-74
2021/10/24 00:15:40;;;;;;;11.50;6.40;;;;;;;2.47;69.17;98409.67;117008;1176;69600;-77
2021/10/24 00:18:09;;;;;;;15.10;7.90;;;;;;;2.40;69.87;98411.59;117004;1177;67685;-78
2021/10/24 00:20:38;;;;;;;12.00;5.80;;;;;;;2.31;70.30;98414.85;116969;1177;68479;-75
2021/10/24 00:23:08;;;;;;;9.80;5.20;;;;;;;2.18;69.40;98417.81;117181;1170;58736;-69
2021/10/24 00:25:38;;;;;;;10.40;4.80;;;;;;;2.04;68.12;98417.62;117056;1177;58742;-68
2021/10/24 00:28:08;;;;;;;11.40;4.80;;;;;;;1.93;68.22;98416.91;117089;1177;69867;-74
2021/10/24 00:30:49;;;;;;;8.60;3.70;;;;;;;1.83;68.28;98420.02;117055;1177;68431;-70
2021/10/24 00:33:19;;;;;;;7.90;4.10;;;;;;;1.76;69.91;98418.90;117029;1177;68609;-68
2021/10/24 00:35:48;;;;;;;9.50;3.80;;;;;;;1.74;69.99;98416.36;116994;1177;58733;-70
2021/10/24 00:38:18;;;;;;;7.20;3.30;;;;;;;1.74;70.46;98418.55;116994;1176;58738;-72
2021/10/24 00:40:47;;;;;;;9.10;3.30;;;;;;;1.70;69.21;98418.30;116978;1177;69839;-72
2021/10/24 00:43:17;;;;;;;9.40;3.50;;;;;;;1.66;69.77;98416.21;116968;1177;67674;-67
2021/10/24 00:45:46;;;;;;;5.70;3.20;;;;;;;1.62;70.72;98430.31;116764;1178;68592;-71
2021/10/24 00:48:16;;;;;;;6.80;3.00;;;;;;;1.58;71.72;98437.06;116909;1177;59183;-77
2021/10/24 00:50:46;;;;;;;8.70;3.20;;;;;;;1.53;71.31;98429.10;116908;1177;59078;-74
2021/10/24 00:53:17;;;;;;;6.60;3.20;;;;;;;1.52;71.25;98430.48;117029;1177;70688;-73
2021/10/24 00:55:47;;;;;;;12.90;7.20;;;;;;;1.50;71.09;98433.19;117018;1177;67381;-69
2021/10/24 00:58:17;;;;;;;13.70;6.60;;;;;;;1.42;72.01;98440.16;116926;1177;69034;-71
2021/10/24 01:00:46;;;;;;;7.50;3.90;;;;;;;1.31;70.66;98442.02;116925;1177;58730;-73
2021/10/24 01:03:16;;;;;;;13.90;5.20;;;;;;;1.26;71.20;98441.42;116991;1176;58688;-74
2021/10/24 01:05:46;;;;;;;10.40;5.40;;;;;;;1.20;71.21;98441.05;117039;1177;70602;-73
2021/10/24 01:08:17;;;;;;;10.90;5.60;;;;;;;1.12;72.62;98444.77;117034;1178;67641;-76
2021/10/24 01:10:46;;;;;;;13.00;5.40;;;;;;;1.05;72.42;98454.00;116870;1177;69244;-70
2021/10/24 01:13:15;;;;;;;9.20;4.70;;;;;;;0.98;72.83;98452.06;116964;1177;58732;-77
2021/10/24 01:15:46;;;;;;;10.00;4.90;;;;;;;0.92;74.97;98448.57;117037;1177;59181;-69
2021/10/24 01:18:15;;;;;;;11.50;4.90;;;;;;;0.85;75.99;98455.09;116957;1177;69619;-71
2021/10/24 01:20:49;;;;;;;14.10;4.50;;;;;;;0.79;74.78;98457.98;117015;1177;67587;-68
2021/10/24 01:23:22;;;;;;;10.20;3.80;;;;;;;0.72;74.63;98455.91;116961;1177;68654;-69
2021/10/24 01:25:53;;;;;;;8.30;4.00;;;;;;;0.65;75.97;98457.84;116981;1177;58722;-78
2021/10/24 01:28:24;;;;;;;8.00;4.60;;;;;;;0.60;74.84;98458.51;117013;1177;58747;-74
2021/10/24 01:30:54;;;;;;;11.20;5.70;;;;;;;0.64;74.69;98458.90;117226;1177;69576;-76
2021/10/24 01:33:24;;;;;;;8.90;4.80;;;;;;;0.69;74.38;98457.77;116995;1177;68338;-70
2021/10/24 01:36:06;;;;;;;8.10;4.70;;;;;;;0.67;73.74;98457.64;117016;1177;68481;-71
2021/10/24 01:38:37;;;;;;;11.40;5.30;;;;;;;0.59;75.04;98461.59;117213;1177;58717;-68
2021/10/24 01:41:07;;;;;;;;;;;;;;;0.52;74.33;98460.94;116903;1177;58745;-68
2021/10/24 01:43:37;;;;;;;10.50;5.30;;;;;;;0.47;75.41;98466.39;116947;1177;70577;-74
2021/10/24 01:46:07;;;;;;;10.40;4.80;;;;;;;0.42;75.76;98469.77;117136;1177;68631;-70
2021/10/24 01:48:36;;;;;;;10.30;4.60;;;;;;;0.38;76.70;98475.05;117093;1177;68404;-69
2021/10/24 01:51:06;;;;;;;8.90;4.50;;;;;;;0.34;76.98;98476.63;116951;1176;58718;-69
2021/10/24 01:53:39;;;;;;;7.90;3.90;;;;;;;0.30;77.45;98479.55;116965;1177;58719;-69
2021/10/24 01:56:09;;;;;;;9.70;5.00;;;;;;;0.25;76.42;98484.56;117011;1177;70496;-67
2021/10/24 01:58:41;;;;;;;9.80;4.10;;;;;;;0.19;75.14;98487.59;117189;1176;68453;-68
2021/10/24 02:01:13;;;;;;;10.80;5.70;;;;;;;0.14;76.31;98481.37;116921;1177;69426;-68
2021/10/24 02:04:17;;;;;;;15.10;7.20;;;;;;;0.09;75.31;98481.48;116800;1177;58701;-74
2021/10/24 02:07:01;;;;;;;12.70;7.20;;;;;;;0.02;75.13;98484.55;117036;1177;58730;-78
2021/10/24 02:09:31;;;;;;;14.30;7.10;;;;;;;-0.05;76.43;98487.66;116982;1177;70542;-70
2021/10/24 02:12:01;;;;;;;14.30;6.90;;;;;;;-0.14;75.19;98490.30;117025;1177;68356;-68
2021/10/24 02:14:31;;;;;;;15.10;7.50;;;;;;;-0.20;75.52;98492.05;117257;1177;69106;-68
2021/10/24 02:17:01;;;;;;;11.10;6.50;;;;;;;-0.24;76.28;98493.23;116963;1177;58709;-69
2021/10/24 02:19:30;;;;;;;12.60;7.20;;;;;;;-0.27;77.97;98496.59;116984;1177;58799;-69
2021/10/24 02:22:00;;;;;;;12.10;7.10;;;;;;;-0.30;77.33;98500.15;117176;1177;69562;-73
2021/10/24 02:24:32;;;;;;;11.80;6.60;;;;;;;-0.34;76.45;98506.11;117025;1177;67836;-68
2021/10/24 02:27:01;;;;;;;14.30;6.50;;;;;;;-0.38;77.10;98511.58;117009;1170;69001;-77
2021/10/24 02:29:32;;;;;;;13.60;7.60;;;;;;;-0.39;77.36;98510.99;116915;1170;59151;-70
2021/10/24 02:32:05;;;;;;;12.90;6.60;;;;;;;-0.40;77.80;98514.02;117058;1177;58723;-75
2021/10/24 02:35:02;;;;;;;13.20;6.10;;;;;;;-0.44;78.42;98515.81;117016;1177;69986;-71
2021/10/24 02:37:32;;;;;;;13.00;7.60;;;;;;;-0.47;77.83;98521.65;116962;1178;67469;-71
2021/10/24 02:40:10;;;;;;;9.50;6.00;;;;;;;-0.49;78.50;98523.90;116916;1179;69083;-73
2021/10/24 02:42:41;;;;;;;13.60;5.60;;;;;;;-0.55;78.57;98525.05;116883;1177;58744;-78
2021/10/24 02:45:11;;;;;;;10.60;5.50;;;;;;;-0.62;78.53;98531.90;116909;1177;58756;-69
2021/10/24 02:47:41;;;;;;;10.20;5.30;;;;;;;-0.67;79.90;98545.34;116827;1177;70353;-73
2021/10/24 02:50:14;;;;;;;9.50;5.10;;;;;;;-0.71;78.68;98547.29;116899;1178;67631;-70
2021/10/24 02:52:44;;;;;;;9.70;4.60;;;;;;;-0.73;79.56;98550.39;117081;1177;68437;-73
2021/10/24 02:55:14;;;;;;;11.10;5.20;;;;;;;-0.75;80.70;98547.08;116958;1170;58729;-71
2021/10/24 02:57:44;;;;;;;11.00;5.30;;;;;;;-0.77;79.26;98551.67;116946;1177;58723;-67
2021/10/24 03:00:14;;;;;;;10.80;5.20;;;;;;;-0.78;80.11;98551.17;116968;1177;69758;-75
2021/10/24 03:02:44;;;;;;;10.60;6.00;;;;;;;-0.81;79.07;98553.27;117006;1177;67312;-71
2021/10/24 03:05:14;;;;;;;14.30;8.00;;;;;;;-0.85;79.59;98557.73;116901;1179;68753;-69
2021/10/24 03:07:44;;;;;;;;;;;;;;;-0.90;78.40;98559.95;116837;1179;58862;-73
2021/10/24 03:10:14;;;;;;;17.30;7.10;;;;;;;-0.96;77.89;98562.15;116835;1179;58689;-69
2021/10/24 03:12:43;;;;;;;12.50;6.70;;;;;;;-1.00;78.64;98561.64;116893;1178;69788;-72
2021/10/24 03:15:13;;;;;;;11.20;6.30;;;;;;;-1.04;78.90;98561.81;116924;1177;67475;-74
2021/10/24 03:17:42;;;;;;;18.40;7.20;;;;;;;-1.06;79.79;98566.18;116871;1177;69036;-77
2021/10/24 03:20:11;;;;;;;11.60;5.10;;;;;;;-1.08;78.72;98567.11;116874;1177;59125;-74
2021/10/24 03:22:41;;;;;;;10.80;5.90;;;;;;;-1.12;80.29;98561.68;116931;1178;58807;-72
2021/10/24 03:25:10;;;;;;;9.50;5.00;;;;;;;-1.13;82.36;98567.08;116974;1179;69819;-76
2021/10/24 03:27:39;;;;;;;10.50;5.80;;;;;;;-1.18;81.48;98571.89;117037;1177;67808;-74
2021/10/24 03:30:10;;;;;;;11.40;5.80;;;;;;;-1.20;81.75;98574.14;116855;1179;69324;-69
2021/10/24 03:32:39;;;;;;;10.20;6.00;;;;;;;-1.26;80.69;98573.09;117008;1177;58739;-67
2021/10/24 03:35:10;;;;;;;13.10;6.60;;;;;;;-1.31;79.93;98572.83;117021;1176;58777;-67
2021/10/24 03:37:39;;;;;;;14.50;5.40;;;;;;;-1.33;79.65;98573.06;116985;1177;71244;-74
2021/10/24 03:40:09;;;;;;;12.00;5.70;;;;;;;-1.34;81.31;98573.52;117029;1177;68752;-74
2021/10/24 03:42:40;;;;;;;12.20;6.70;;;;;;;-1.35;82.52;98575.25;117105;1177;68292;-75
2021/10/24 03:45:09;;;;;;;13.40;8.40;;;;;;;-1.39;81.67;98574.19;116969;1177;58723;-71
2021/10/24 03:47:39;;;;;;;16.10;8.40;;;;;;;-1.44;79.72;98574.77;117044;1177;58736;-68
2021/10/24 03:50:09;;;;;;;;;;;;;;;-1.52;80.36;98571.54;116964;1179;69763;-77
2021/10/24 03:52:42;;;;;;;11.80;6.60;;;;;;;-1.57;82.91;98573.40;117000;1177;67430;-70
2021/10/24 03:55:14;;;;;;;13.30;6.10;;;;;;;-1.61;82.20;98567.80;117000;1177;69644;-80
2021/10/24 03:57:43;;;;;;;13.40;7.40;;;;;;;-1.64;83.41;98570.58;116942;1177;58681;-78
2021/10/24 04:00:13;;;;;;;16.40;7.50;;;;;;;-1.67;82.88;98575.27;117010;1177;58742;-72
2021/10/24 04:03:01;;;;;;;11.00;5.80;;;;;;;-1.70;81.89;98576.02;116998;1177;70628;-69
2021/10/24 04:05:36;;;;;;;10.70;5.70;;;;;;;-1.70;83.34;98576.48;116964;1177;68396;-66
2021/10/24 04:08:05;;;;;;;23.70;8.90;;;;;;;-1.72;83.55;98576.25;117005;1177;69063;-67
2021/10/24 04:10:35;;;;;;;13.90;8.00;;;;;;;-1.75;83.28;98578.32;116986;1177;58729;-69
2021/10/24 04:13:05;;;;;;;15.50;8.50;;;;;;;-1.77;82.57;98581.41;117000;1177;58793;-76
2021/10/24 04:15:34;;;;;;;23.20;10.60;;;;;;;-1.81;81.87;98584.35;116951;1177;70612;-72
2021/10/24 04:18:06;;;;;;;15.50;8.80;;;;;;;-1.85;81.19;98586.69;116927;1178;67712;-68
2021/10/24 04:20:38;;;;;;;14.80;7.60;;;;;;;-1.90;82.11;98587.37;116970;1177;68475;-68
2021/10/24 04:23:07;;;;;;;15.10;8.90;;;;;;;-1.92;83.12;98593.88;116949;1177;58743;-75
2021/10/24 04:25:37;;;;;;;17.10;10.00;;;;;;;-1.95;83.89;98594.06;116923;1177;58728;-78
2021/10/24 04:28:06;;;;;;;13.40;8.10;;;;;;;-1.97;83.97;98595.85;116999;1177;69925;-71
2021/10/24 04:30:35;;;;;;;13.60;8.60;;;;;;;-2.00;82.90;98597.42;117008;1177;68708;-71
2021/10/24 04:33:04;;;;;;;13.60;8.70;;;;;;;-2.01;83.05;98603.53;116936;1177;69244;-70
2021/10/24 04:35:35;;;;;;;14.30;8.80;;;;;;;-2.01;83.88;98608.93;116995;1177;58698;-76
2021/10/24 04:38:04;;;;;;;15.50;9.20;;;;;;;-2.01;84.78;98614.55;116928;1179;58768;-76
2021/10/24 04:40:34;;;;;;;16.50;10.90;;;;;;;-2.03;83.91;98616.06;116939;1177;70598;-69
2021/10/24 04:43:07;;;;;;;14.70;8.90;;;;;;;-2.05;82.54;98614.00;116968;1177;67604;-68
2021/10/24 04:45:38;;;;;;;12.80;8.10;;;;;;;-2.07;82.91;98614.69;116927;1170;69380;-67
2021/10/24 04:48:09;;;;;;;20.70;9.50;;;;;;;-2.09;83.15;98617.48;116882;1169;58713;-69
2021/10/24 04:50:44;;;;;;;14.20;9.00;;;;;;;-2.09;82.83;98619.88;116978;1177;58766;-70
2021/10/24 04:53:15;;;;;;;13.80;8.60;;;;;;;-2.10;82.16;98618.84;116821;1177;70398;-72
2021/10/24 04:55:45;;;;;;;17.60;9.30;;;;;;;-2.12;82.67;98622.65;116832;1177;67860;-69
2021/10/24 04:58:14;;;;;;;21.50;9.60;;;;;;;-2.10;84.39;98627.45;116901;1179;68436;-67
2021/10/24 05:00:44;;;;;;;15.90;7.70;;;;;;;-2.13;83.80;98625.40;117020;1177;58724;-68
2021/10/24 05:03:14;;;;;;;18.70;8.80;;;;;;;-2.14;84.16;98627.55;117061;1177;58701;-72
2021/10/24 05:05:46;;;;;;;15.40;9.00;;;;;;;-2.13;84.79;98630.21;116897;1177;70675;-70
2021/10/24 05:08:16;;;;;;;19.00;10.20;;;;;;;-2.10;84.87;98637.13;117045;1177;67848;-70
2021/10/24 05:10:45;;;;;;;17.80;11.30;;;;;;;-2.07;83.58;98643.21;116967;1177;68639;-71
2021/10/24 05:13:15;;;;;;;20.70;11.70;;;;;;;-2.04;83.09;98649.86;116979;1177;58748;-70
2021/10/24 05:15:44;;;;;;;;;;;;;;;-2.03;83.12;98654.23;116889;1179;58771;-75
2021/10/24 05:18:14;;;;;;;20.90;9.80;;;;;;;-2.02;83.72;98659.46;116946;1177;69793;-76
2021/10/24 05:20:43;;;;;;;19.70;11.60;;;;;;;-2.01;83.74;98663.48;116949;1177;68700;-73
2021/10/24 05:23:12;;;;;;;23.20;12.50;;;;;;;-1.99;84.47;98669.66;116998;1177;69332;-72
2021/10/24 05:25:58;;;;;;;19.70;11.50;;;;;;;-1.99;82.98;98675.57;117014;1177;58721;-70
2021/10/24 05:28:28;;;;;;;22.10;10.60;;;;;;;-1.95;83.80;98680.76;116997;1177;58708;-71
2021/10/24 05:30:57;;;;;;;19.90;10.40;;;;;;;-1.65;87.84;98683.11;117067;1177;70627;-71
2021/10/24 05:33:26;;;;;;;23.50;11.80;;;;;;;-1.42;87.12;98686.02;116992;1177;68354;-76
2021/10/24 05:36:34;;;;;;;23.70;11.00;;;;;;;-1.21;84.89;98687.33;116586;1176;69690;-71
2021/10/24 05:39:03;;;;;;;24.90;14.60;;;;;;;-1.14;84.16;98688.29;116541;1180;58748;-71
2021/10/24 05:41:34;;;;;;;29.00;15.30;;;;;;;-1.11;83.54;98692.45;116675;1178;58737;-74
2021/10/24 05:44:05;;;;;;;19.20;12.00;;;;;;;-1.08;83.16;98698.32;116901;1179;70545;-70
2021/10/24 05:46:41;;;;;;;24.00;13.00;;;;;;;-0.99;83.37;98703.45;117012;1178;68476;-76
2021/10/24 05:49:13;;;;;;;21.30;11.70;;;;;;;-0.89;82.70;98707.05;117003;1177;68599;-77
2021/10/24 05:51:50;;;;;;;20.60;11.00;;;;;;;-0.86;82.46;98710.14;116968;1177;58807;-69
2021/10/24 05:54:21;;;;;;;22.10;11.70;;;;;;;-0.82;82.05;98714.22;116946;1177;58777;-71
2021/10/24 05:56:57;;;;;;;17.30;9.30;;;;;;;-0.78;82.00;98721.15;116689;1179;69758;-74
2021/10/24 05:59:43;;;;;;;29.20;17.40;;;;;;;-0.69;82.25;98724.60;116714;1177;68604;-74
2021/10/24 06:02:19;;;;;;;30.00;19.00;;;;;;;-0.57;81.98;98731.58;116775;1179;69884;-76
2021/10/24 06:05:07;;;;;;;27.10;18.50;;;;;;;-0.47;81.70;98736.64;116928;1177;58684;-76
2021/10/24 06:07:36;;;;;;;24.90;14.50;;;;;;;-0.32;81.75;98744.55;116785;1178;58808;-74
2021/10/24 06:10:13;;;;;;;24.50;14.30;;;;;;;0.02;81.37;98746.50;116797;1179;70699;-74
2021/10/24 06:15:16;;;;;;;22.60;13.10;;;;;;;1.26;80.64;98753.67;116860;1178;69574;-77
2021/10/24 06:17:48;;;;;;;25.30;16.00;;;;;;;1.95;79.32;98756.95;116729;1179;58758;-74
2021/10/24 06:20:23;;;;;;;24.40;15.80;;;;;;;2.59;73.20;98759.16;117015;1177;58713;-69
2021/10/24 06:22:55;;;;;;;29.60;15.70;;;;;;;3.21;72.60;98758.86;117055;1177;70556;-75
2021/10/24 06:25:25;;;;;;;25.90;16.60;;;;;;;3.69;69.37;98755.84;116973;1178;69016;-74
2021/10/24 06:28:02;;;;;;;31.30;19.00;;;;;;;4.15;68.82;98762.47;116969;1177;69573;-76
2021/10/24 06:30:31;;;;;;;29.90;17.80;;;;;;;4.58;71.75;98764.52;116934;1177;58751;-78
2021/10/24 06:33:12;;;;;;;28.00;16.40;;;;;;;5.02;66.01;98764.92;116920;1177;58717;-80
2021/10/24 06:36:01;;;;;;;20.70;12.90;;;;;;;5.61;67.53;98771.96;116926;1177;70896;-78
2021/10/24 06:38:48;;;;;;;23.50;15.70;;;;;;;6.11;62.52;98772.52;117031;1177;68401;-73
2021/10/24 06:41:30;;;;;;;21.30;14.60;;;;;;;6.71;64.60;98775.41;117077;1177;68574;-71
2021/10/24 06:44:11;;;;;;;21.80;13.50;;;;;;;7.09;57.03;98775.74;117007;1177;58728;-78
2021/10/24 06:47:09;;;;;;;23.50;14.40;;;;;;;7.64;59.67;98781.52;116641;1178;58758;-74
2021/10/24 06:49:50;;;;;;;29.40;15.00;;;;;;;8.01;57.58;98782.83;116961;1177;69986;-71
2021/10/24 06:52:38;;;;;;;22.40;11.90;;;;;;;8.20;56.85;98785.63;116960;1177;68354;-75
2021/10/24 06:55:39;;;;;;;29.60;14.10;;;;;;;8.57;55.90;98789.39;116764;1177;69298;-68
2021/10/24 06:58:11;;;;;;;32.70;17.80;;;;;;;8.83;54.63;98794.11;116948;1178;59167;-73
2021/10/24 07:01:06;;;;;;;39.10;19.40;;;;;;;9.21;53.60;98796.36;116986;1177;58725;-78
2021/10/24 07:03:54;;;;;;;32.10;16.80;;;;;;;9.54;52.07;98792.40;116956;1177;69797;-68
2021/10/24 07:06:41;;;;;;;21.00;13.80;;;;;;;9.42;52.14;98799.31;117038;1177;68496;-68
2021/10/24 07:09:25;;;;;;;21.80;11.90;;;;;;;9.40;50.48;98806.11;117051;1177;68429;-73
2021/10/24 07:12:10;;;;;;;16.80;9.60;;;;;;;9.62;49.98;98802.31;116901;1177;58682;-77
2021/10/24 07:14:39;;;;;;;24.90;12.10;;;;;;;9.60;49.81;98806.59;116987;1178;58769;-75
2021/10/24 07:17:08;;;;;;;19.80;10.70;;;;;;;10.35;49.02;98810.29;117095;1176;68760;-76
2021/10/24 07:19:37;;;;;;;14.60;8.30;;;;;;;10.33;48.44;98806.02;117023;1177;68881;-78
2021/10/24 07:22:15;;;;;;;12.30;6.10;;;;;;;10.46;46.71;98801.35;116878;1178;68255;-78
2021/10/24 07:25:23;;;;;;;9.00;5.10;;;;;;;11.18;45.47;98806.69;116931;1177;58749;-77
2021/10/24 07:27:52;;;;;;;10.90;5.60;;;;;;;11.23;43.94;98809.23;116886;1177;58729;-73
2021/10/24 07:30:23;;;;;;;10.10;5.70;;;;;;;12.02;43.82;98805.19;116879;1176;70553;-74
2021/10/24 07:32:58;;;;;;;11.60;5.90;;;;;;;12.43;42.82;98801.60;116959;1177;67607;-72
2021/10/24 07:35:46;;;;;;;12.60;6.00;;;;;;;12.96;41.00;98802.35;117025;1177;69441;-78
2021/10/24 07:38:16;;;;;;;11.70;5.40;;;;;;;13.43;40.19;98807.17;117045;1177;58666;-76
2021/10/24 07:40:49;;;;;;;11.40;5.90;;;;;;;13.43;39.30;98811.47;117057;1177;58745;-73
2021/10/24 07:43:23;;;;;;;13.90;6.50;;;;;;;13.85;39.02;98815.08;117013;1177;70559;-71
2021/10/24 07:45:54;;;;;;;13.60;5.80;;;;;;;14.20;38.69;98813.33;117053;1177;68540;-74
2021/10/24 07:48:28;;;;;;;15.50;5.80;;;;;;;14.57;38.39;98818.01;116938;1177;69216;-70
2021/10/24 07:50:57;;;;;;;12.70;5.90;;;;;;;14.42;36.83;98815.14;116940;1177;58739;-74
2021/10/24 07:53:30;;;;;;;14.50;6.60;;;;;;;14.88;37.03;98814.48;116994;1177;58747;-77
2021/10/24 07:56:03;;;;;;;11.70;6.60;;;;;;;15.02;36.07;98812.14;116991;1177;71211;-78
2021/10/24 07:58:55;;;;;;;16.20;6.40;;;;;;;14.82;36.20;98814.71;117055;1177;68781;-77
2021/10/24 08:01:24;;;;;;;13.20;6.90;;;;;;;14.91;36.25;98819.10;116960;1178;68713;-74
2021/10/24 08:03:53;;;;;;;12.80;6.50;;;;;;;15.19;36.17;98820.09;116825;1179;58725;-80
2021/10/24 08:06:28;;;;;;;13.10;6.00;;;;;;;15.58;34.99;98822.02;116838;1178;58698;-72
2021/10/24 08:09:01;;;;;;;14.40;6.20;;;;;;;15.64;34.81;98823.91;116698;1179;70480;-73
2021/10/24 08:11:30;;;;;;;10.10;6.20;;;;;;;15.68;34.26;98823.41;117023;1177;67662;-83
2021/10/24 08:14:00;;;;;;;10.30;6.40;;;;;;;15.37;35.21;98828.05;117000;1177;69238;-81
2021/10/24 08:16:29;;;;;;;12.00;7.00;;;;;;;15.41;35.64;98831.15;116953;1178;59205;-85
2021/10/24 08:18:58;;;;;;;11.90;6.70;;;;;;;15.74;35.47;98826.27;117029;1177;58684;-69
2021/10/24 08:21:35;;;;;;;10.90;6.00;;;;;;;16.26;34.08;98830.44;116984;1177;71126;-78
2021/10/24 08:24:05;;;;;;;;;;;;;;;16.28;33.75;98832.79;117092;1177;68410;-83
2021/10/24 08:26:36;;;;;;;12.40;6.70;;;;;;;16.50;33.77;98839.95;117042;1177;69724;-74
2021/10/24 08:29:07;;;;;;;13.80;6.30;;;;;;;15.92;33.94;98839.09;117043;1177;58733;-81
2021/10/24 08:31:55;;;;;;;12.60;6.70;;;;;;;15.95;34.53;98838.05;116997;1177;58720;-82
2021/10/24 08:34:24;;;;;;;11.60;6.70;;;;;;;16.28;33.96;98837.96;117027;1177;70116;-81
2021/10/24 08:36:53;;;;;;;10.50;6.50;;;;;;;16.88;33.26;98832.78;117193;1177;68195;-79
2021/10/24 08:39:22;;;;;;;15.20;6.00;;;;;;;16.91;32.97;98834.83;117059;1177;68837;-73
2021/10/24 08:41:51;;;;;;;12.00;6.50;;;;;;;16.36;32.84;98832.58;117066;1177;59189;-82
2021/10/24 08:44:20;;;;;;;9.70;5.80;;;;;;;16.66;32.55;98833.86;117105;1177;58720;-71
2021/10/24 08:46:49;;;;;;;9.80;6.20;;;;;;;17.23;32.38;98835.05;117073;1177;71233;-81
2021/10/24 08:49:19;;;;;;;10.40;5.20;;;;;;;17.60;31.18;98836.36;116957;1177;67665;-82
2021/10/24 08:51:49;;;;;;;10.00;5.00;;;;;;;17.41;31.14;98834.63;116890;1177;68878;-85
2021/10/24 08:54:21;;;;;;;;;;;;;;;17.09;31.27;98832.66;117255;1177;58717;-84
2021/10/24 08:56:51;;;;;;;11.00;5.50;;;;;;;17.42;31.59;98835.84;117008;1177;58802;-75
2021/10/24 08:59:19;;;;;;;11.50;5.10;;;;;;;17.55;30.82;98832.82;117023;1177;70380;-86
2021/10/24 09:01:51;;;;;;;9.30;4.80;;;;;;;16.99;31.09;98834.65;117023;1177;67549;-68
2021/10/24 09:04:20;;;;;;;9.10;5.10;;;;;;;17.34;30.40;98829.42;117002;1177;69273;-84
2021/10/24 09:06:56;;;;;;;13.30;5.40;;;;;;;17.24;29.85;98829.17;117101;1177;58736;-87
2021/10/24 09:09:31;;;;;;;9.00;4.60;;;;;;;17.06;31.31;98829.80;117024;1177;58743;-86
2021/10/24 09:12:03;;;;;;;10.10;5.00;;;;;;;17.49;31.04;98828.03;117017;1177;71259;-84
2021/10/24 09:14:47;;;;;;;9.90;5.70;;;;;;;17.79;29.89;98833.20;117075;1177;68359;-76
2021/10/24 09:17:19;;;;;;;10.00;5.20;;;;;;;18.32;29.41;98831.17;117017;1177;69118;-86
2021/10/24 09:19:53;;;;;;;9.90;5.30;;;;;;;18.12;29.57;98826.55;117427;1177;58728;-77
2021/10/24 09:22:37;;;;;;;11.70;5.50;;;;;;;18.90;28.47;98826.73;117192;1177;58725;-85
2021/10/24 09:25:15;;;;;;;9.30;4.60;;;;;;;19.32;28.07;98825.48;117087;1177;69803;-85
2021/10/24 09:27:48;;;;;;;8.10;4.00;;;;;;;19.72;27.34;98825.70;117241;1177;66948;-87
2021/10/24 09:30:36;;;;;;;8.80;4.20;;;;;;;18.45;27.18;98819.98;117089;1177;68473;-75
2021/10/24 09:33:11;;;;;;;8.10;4.10;;;;;;;17.99;28.58;98824.80;117099;1177;58725;-84
2021/10/24 09:35:47;;;;;;;9.00;4.30;;;;;;;19.49;27.29;98827.02;118005;1176;58739;-70
2021/10/24 09:38:22;;;;;;;7.50;4.10;;;;;;;19.69;27.05;98825.23;118244;1176;70582;-69
2021/10/24 09:41:11;;;;;;;7.00;3.50;;;;;;;20.35;26.06;98824.06;118277;1176;68365;-80
2021/10/24 09:43:42;;;;;;;7.80;3.70;;;;;;;20.54;24.04;98823.16;118069;1176;69179;-78
2021/10/24 09:46:14;;;;;;;6.80;3.40;;;;;;;19.70;24.99;98818.42;117097;1177;58735;-75
2021/10/24 09:48:52;;;;;;;8.30;3.60;;;;;;;19.11;26.99;98822.48;117116;1177;58655;-81
2021/10/24 09:51:34;;;;;;;6.00;3.30;;;;;;;19.64;25.19;98818.02;117184;1176;70345;-76
2021/10/24 09:54:18;;;;;;;7.20;3.60;;;;;;;19.93;25.61;98816.83;117180;1177;68974;-73
2021/10/24 09:56:48;;;;;;;8.20;3.60;;;;;;;20.55;24.40;98815.78;117113;1177;68685;-73
2021/10/24 09:59:22;;;;;;;9.30;4.10;;;;;;;21.18;24.34;98814.50;117086;1177;58800;-74
2021/10/24 10:01:56;;;;;;;7.70;3.20;;;;;;;20.85;23.97;98815.55;117039;1177;58668;-90
2021/10/24 10:04:24;;;;;;;7.10;3.40;;;;;;;20.85;23.72;98816.06;117129;1177;70947;-72
2021/10/24 10:06:53;;;;;;;8.00;3.60;;;;;;;20.80;23.70;98812.89;117156;1177;68237;-81
2021/10/24 10:09:22;;;;;;;8.30;3.20;;;;;;;21.20;23.23;98811.58;116934;1178;69557;-79
2021/10/24 10:11:57;;;;;;;6.50;3.10;;;;;;;21.15;23.15;98806.77;117063;1177;58782;-78
2021/10/24 10:14:30;;;;;;;8.40;3.60;;;;;;;21.11;22.68;98804.04;117042;1177;58726;-76
2021/10/24 10:17:03;;;;;;;6.90;3.20;;;;;;;20.56;23.57;98805.20;117213;1177;70335;-79
2021/10/24 10:19:36;;;;;;;15.10;3.70;;;;;;;20.74;23.76;98807.11;117085;1177;67892;-76
2021/10/24 10:22:21;;;;;;;9.20;3.70;;;;;;;21.34;22.58;98804.92;117026;1177;68851;-69
2021/10/24 10:25:01;;;;;;;6.90;3.20;;;;;;;19.99;23.92;98808.21;117023;1177;58775;-75
2021/10/24 10:27:36;;;;;;;7.10;3.60;;;;;;;18.93;24.91;98809.07;117066;1177;58716;-75
2021/10/24 10:30:14;;;;;;;7.10;3.90;;;;;;;18.59;25.97;98803.20;117020;1178;69803;-80
2021/10/24 10:32:47;;;;;;;9.50;5.10;;;;;;;17.13;27.93;98801.77;117022;1177;69406;-79
2021/10/24 10:35:18;;;;;;;9.10;4.80;;;;;;;16.29;28.91;98801.67;117072;1177;68298;-83
2021/10/24 10:37:52;;;;;;;10.20;4.40;;;;;;;15.09;30.84;98802.15;117062;1177;58748;-69
2021/10/24 10:40:23;;;;;;;9.70;4.20;;;;;;;14.26;32.79;98808.58;116994;1179;58717;-80
2021/10/24 10:42:55;;;;;;;8.90;3.80;;;;;;;14.36;33.21;98806.21;117053;1177;70421;-81
2021/10/24 10:45:34;;;;;;;9.80;3.30;;;;;;;14.45;33.09;98802.36;117169;1177;68612;-76
2021/10/24 10:48:10;;;;;;;10.20;3.40;;;;;;;14.59;32.48;98799.88;117139;1177;69343;-73
2021/10/24 10:50:45;;;;;;;8.80;3.90;;;;;;;14.52;32.40;98803.94;117097;1177;58725;-83
2021/10/24 10:53:46;;;;;;;6.40;3.30;;;;;;;15.00;32.22;98796.41;117051;1177;59131;-76
2021/10/24 10:56:19;;;;;;;11.40;3.80;;;;;;;16.49;30.09;98790.85;117057;1177;70433;-76
2021/10/24 10:58:51;;;;;;;5.30;2.80;;;;;;;17.36;28.58;98786.21;117188;1178;68818;-75
2021/10/24 11:01:23;;;;;;;11.80;3.50;;;;;;;18.33;28.56;98787.38;117118;1178;69173;-86
2021/10/24 11:03:54;;;;;;;6.90;3.00;;;;;;;18.61;27.39;98788.35;117207;1177;58720;-81
2021/10/24 11:06:23;;;;;;;6.20;3.00;;;;;;;19.59;26.44;98781.77;117197;1177;58668;-86
2021/10/24 11:09:02;;;;;;;5.40;2.50;;;;;;;20.72;24.39;98775.10;117070;1177;70946;-81
2021/10/24 11:11:44;;;;;;;5.50;2.80;;;;;;;21.21;23.28;98777.52;117039;1177;68155;-73
2021/10/24 11:14:15;;;;;;;5.10;2.60;;;;;;;20.96;23.87;98774.56;117029;1177;69077;-77
2021/10/24 11:16:59;;;;;;;5.90;2.70;;;;;;;20.97;23.18;98775.02;116961;1177;58730;-84
2021/10/24 11:22:03;;;;;;;5.90;2.30;;;;;;;20.23;23.72;98769.46;117016;1177;70443;-73
2021/10/24 11:24:40;;;;;;;6.60;2.60;;;;;;;21.17;22.70;98767.95;116968;1178;68467;-84
2021/10/24 11:27:15;;;;;;;5.10;2.30;;;;;;;21.82;21.34;98765.47;116987;1177;69258;-72
2021/10/24 11:29:50;;;;;;;5.00;2.30;;;;;;;22.31;20.43;98758.79;117014;1178;58814;-77
2021/10/24 11:32:40;;;;;;;7.40;2.30;;;;;;;21.63;20.64;98768.62;116982;1177;58723;-76
2021/10/24 11:35:09;;;;;;;6.50;2.20;;;;;;;22.10;20.10;98766.48;117088;1177;71086;-75
2021/10/24 11:37:50;;;;;;;4.90;2.00;;;;;;;22.19;20.43;98769.25;117038;1177;69112;-83
2021/10/24 11:40:31;;;;;;;7.10;2.30;;;;;;;22.09;20.15;98766.42;116984;1178;68337;-73
2021/10/24 11:43:05;;;;;;;4.40;2.10;;;;;;;22.56;19.95;98765.91;116980;1178;58729;-82
2021/10/24 11:45:44;;;;;;;6.90;2.30;;;;;;;22.88;19.67;98762.73;117072;1177;58720;-77
2021/10/24 11:48:24;;;;;;;4.00;2.30;;;;;;;23.44;18.64;98755.72;117045;1178;69711;-85
2021/10/24 11:51:06;;;;;;;3.90;2.00;;;;;;;23.28;18.38;98756.77;117054;1177;67425;-89
2021/10/24 11:53:38;;;;;;;4.50;2.00;;;;;;;23.16;18.50;98759.34;117004;1177;69215;-82
2021/10/24 11:56:20;;;;;;;5.50;2.20;;;;;;;23.41;18.95;98760.72;117006;1180;58809;-83